Time;durP1;ratioP1;P1;durP2;ratioP2;P2;SDS_P1;SDS_P2;PMS_P1;PMS_P2;Temp;Humidity;BMP_temperature;BMP_pressure;BME280_temperature;BME280_humidity;BME280_pressure;Samples;Min_cycle;Max_cycle;Signal;HPM_P1;HPM_P2
2022/11/11 00:00:18;;;;;;;16.50;6.17;;;10.20;99.90;;;;;;5074104;28;20071;-77
2022/11/11 00:02:44;;;;;;;15.40;6.63;;;10.00;99.90;;;;;;5074192;28;20082;-78
2022/11/11 00:05:10;;;;;;;11.93;6.17;;;10.00;99.90;;;;;;5074128;28;20040;-77
2022/11/11 00:07:35;;;;;;;14.73;7.17;;;10.00;99.90;;;;;;5074185;28;20074;-77
2022/11/11 00:10:01;;;;;;;14.40;6.97;;;10.00;99.90;;;;;;5074451;28;20032;-77
2022/11/11 00:12:26;;;;;;;12.07;6.23;;;10.00;99.90;;;;;;5073813;28;20060;-78
2022/11/11 00:14:52;;;;;;;16.00;6.93;;;10.00;99.90;;;;;;5056527;28;20032;-77
2022/11/11 00:25:30;;;;;;;12.70;6.78;;;9.90;99.90;;;;;;5074849;28;19922;-78
2022/11/11 00:27:56;;;;;;;14.63;7.50;;;9.90;99.90;;;;;;5074033;28;20107;-78
2022/11/11 00:30:21;;;;;;;16.50;7.83;;;9.90;99.90;;;;;;5055752;28;20089;-78
2022/11/11 00:32:47;;;;;;;17.70;7.20;;;9.90;99.90;;;;;;5039334;28;20446;-78
2022/11/11 00:38:46;;;;;;;19.67;8.23;;;10.00;99.90;;;;;;5022586;28;20041;-78
2022/11/11 00:41:04;;;;;;;14.20;7.87;;;10.00;99.90;;;;;;5049772;28;20446;-78
2022/11/11 00:43:30;;;;;;;21.00;8.70;;;10.10;99.90;;;;;;5053874;28;20067;-78
2022/11/11 00:50:57;;;;;;;16.00;9.03;;;10.10;99.90;;;;;;5035455;28;20432;-77
2022/11/11 00:51:26;;;;;;;19.58;9.27;;;10.20;99.90;;;;;;5054236;28;20099;-78
2022/11/11 00:53:51;;;;;;;17.63;10.33;;;10.30;99.90;;;;;;5035861;28;20037;-78
2022/11/11 00:56:17;;;;;;;18.93;10.27;;;10.30;99.90;;;;;;5053220;28;20079;-78
2022/11/11 00:58:43;;;;;;;17.77;10.23;;;10.30;99.90;;;;;;5035510;28;20381;-78
2022/11/11 01:01:09;;;;;;;18.20;9.77;;;10.30;99.90;;;;;;5052774;28;20029;-77
2022/11/11 01:03:34;;;;;;;16.23;9.87;;;10.30;99.90;;;;;;5053975;28;20033;-78
2022/11/11 01:06:01;;;;;;;18.40;11.13;;;10.30;99.90;;;;;;5057883;28;20044;-78
2022/11/11 01:08:27;;;;;;;15.30;9.43;;;10.40;99.90;;;;;;5057413;28;20029;-78
2022/11/11 01:10:52;;;;;;;20.13;10.50;;;10.30;99.90;;;;;;5057432;28;20044;-78
2022/11/11 01:13:29;;;;;;;17.67;9.97;;;10.30;99.90;;;;;;5039355;28;20032;-77
2022/11/11 01:16:01;;;;;;;18.97;11.30;;;10.40;99.90;;;;;;5057430;28;20028;-78
2022/11/11 01:18:27;;;;;;;22.37;13.33;;;10.40;99.90;;;;;;5057115;28;20037;-78
2022/11/11 01:21:20;;;;;;;20.37;12.37;;;10.40;99.90;;;;;;5057339;28;20037;-78
2022/11/11 01:23:48;;;;;;;18.47;11.47;;;10.40;99.90;;;;;;5037115;28;20518;-77
2022/11/11 01:26:24;;;;;;;23.43;13.10;;;10.40;99.90;;;;;;5056764;28;20025;-77
2022/11/11 01:28:51;;;;;;;22.87;13.70;;;10.40;99.90;;;;;;5039182;28;20017;-78
2022/11/11 01:31:19;;;;;;;19.97;12.83;;;10.40;99.90;;;;;;5056665;28;20124;-78
2022/11/11 01:33:45;;;;;;;22.43;12.90;;;10.40;99.90;;;;;;5057049;28;20031;-78
2022/11/11 01:36:17;;;;;;;20.93;12.83;;;10.30;99.90;;;;;;5039038;28;20123;-78
2022/11/11 01:38:43;;;;;;;20.53;13.23;;;10.40;99.90;;;;;;5056942;28;20057;-78
2022/11/11 01:43:56;;;;;;;20.33;13.00;;;10.40;99.90;;;;;;5056867;28;20037;-78
2022/11/11 01:46:35;;;;;;;22.97;14.63;;;10.50;99.90;;;;;;5039022;28;20025;-78
2022/11/11 01:49:22;;;;;;;24.50;13.97;;;10.40;99.90;;;;;;5038915;28;20487;-77
2022/11/11 01:52:04;;;;;;;20.30;13.00;;;10.50;99.90;;;;;;5056545;28;20079;-78
2022/11/11 01:54:48;;;;;;;24.13;14.27;;;10.50;99.90;;;;;;5039171;28;20036;-78
2022/11/11 01:57:16;;;;;;;;;;;10.50;99.90;;;;;;5039189;28;20036;-78
2022/11/11 01:59:45;;;;;;;27.50;15.70;;;10.50;99.90;;;;;;5057833;28;19909;-78
2022/11/11 02:02:20;;;;;;;23.07;15.33;;;10.50;99.90;;;;;;5056669;28;20416;-78
2022/11/11 02:07:41;;;;;;;24.27;15.10;;;10.50;99.90;;;;;;5032797;28;20025;-78
2022/11/11 02:10:08;;;;;;;25.00;16.17;;;10.50;99.90;;;;;;5055490;28;20056;-78
2022/11/11 02:15:18;;;;;;;21.67;13.83;;;10.50;99.90;;;;;;5056687;28;20064;-77
2022/11/11 02:17:47;;;;;;;24.47;15.60;;;10.60;99.90;;;;;;5038418;28;20424;-77
2022/11/11 02:20:16;;;;;;;24.40;15.50;;;10.60;99.90;;;;;;5056233;28;20074;-77
2022/11/11 02:22:42;;;;;;;20.83;14.77;;;10.60;99.90;;;;;;5038533;28;20063;-77
2022/11/11 02:25:11;;;;;;;21.03;13.77;;;10.60;99.90;;;;;;5038082;28;20056;-77
2022/11/11 02:27:41;;;;;;;26.43;14.87;;;10.60;99.90;;;;;;5056168;28;20024;-77
2022/11/11 02:30:14;;;;;;;25.70;14.37;;;10.70;99.90;;;;;;5055363;28;20041;-77
2022/11/11 02:32:41;;;;;;;25.13;15.77;;;10.70;99.90;;;;;;5056122;28;20025;-78
2022/11/11 02:35:19;;;;;;;26.60;15.73;;;10.70;99.90;;;;;;5055069;28;20037;-77
2022/11/11 02:37:47;;;;;;;26.43;15.17;;;10.70;99.90;;;;;;5055696;28;20132;-77
2022/11/11 02:40:36;;;;;;;26.90;16.30;;;10.70;99.90;;;;;;5055849;28;20059;-77
2022/11/11 02:43:01;;;;;;;22.20;15.27;;;10.70;99.90;;;;;;5037904;28;20037;-77
2022/11/11 02:45:27;;;;;;;25.27;16.33;;;10.70;99.90;;;;;;5056006;28;20040;-77
2022/11/11 02:47:52;;;;;;;23.30;15.03;;;10.70;99.90;;;;;;5056208;28;20107;-78
2022/11/11 02:50:18;;;;;;;24.33;14.53;;;10.70;99.90;;;;;;5054264;28;20477;-78
2022/11/11 02:52:44;;;;;;;24.17;13.80;;;10.70;99.90;;;;;;5037646;28;20017;-77
2022/11/11 02:55:09;;;;;;;23.67;14.90;;;10.70;99.90;;;;;;5054262;28;20082;-77
2022/11/11 02:57:36;;;;;;;22.00;14.30;;;10.80;99.90;;;;;;5055548;28;20021;-78
2022/11/11 03:00:03;;;;;;;28.53;15.57;;;10.70;99.90;;;;;;5054240;28;20461;-78
2022/11/11 03:02:29;;;;;;;21.73;15.13;;;10.80;99.90;;;;;;5055557;28;20389;-78
2022/11/11 03:04:56;;;;;;;27.00;15.13;;;10.80;99.90;;;;;;5054973;28;20128;-78
2022/11/11 03:07:22;;;;;;;24.50;15.23;;;10.80;99.90;;;;;;5054894;28;20028;-77
2022/11/11 03:09:48;;;;;;;24.60;15.70;;;10.80;99.90;;;;;;5055312;28;20040;-77
2022/11/11 03:12:14;;;;;;;24.53;15.07;;;10.80;99.90;;;;;;5055652;28;20103;-77
2022/11/11 03:14:40;;;;;;;28.83;15.87;;;10.80;99.90;;;;;;5054112;28;20039;-77
2022/11/11 03:19:50;;;;;;;22.58;15.02;;;10.80;99.90;;;;;;5054241;28;20044;-78
2022/11/11 03:22:15;;;;;;;24.60;15.30;;;10.80;99.90;;;;;;5036908;28;20036;-78
2022/11/11 03:27:25;;;;;;;27.63;16.65;;;10.80;99.90;;;;;;5054977;28;20063;-78
2022/11/11 03:29:50;;;;;;;24.60;14.67;;;10.80;99.90;;;;;;5053491;28;20561;-78
2022/11/11 03:32:16;;;;;;;22.93;14.17;;;10.80;99.90;;;;;;5054864;28;20037;-78
2022/11/11 03:34:42;;;;;;;21.93;13.87;;;10.70;99.90;;;;;;5037161;28;20037;-77
2022/11/11 03:39:55;;;;;;;21.40;13.90;;;10.80;99.90;;;;;;5055295;28;20044;-78
2022/11/11 03:42:20;;;;;;;20.60;13.67;;;10.80;99.90;;;;;;5054708;28;20029;-78
2022/11/11 03:44:46;;;;;;;23.67;13.23;;;10.70;99.90;;;;;;5054757;28;20045;-77
2022/11/11 03:47:15;;;;;;;24.13;13.53;;;10.80;99.90;;;;;;5036854;28;20094;-78
2022/11/11 03:49:40;;;;;;;19.80;12.43;;;10.70;99.90;;;;;;5036442;28;20025;-74
2022/11/11 03:52:06;;;;;;;22.77;12.97;;;10.70;99.90;;;;;;5036638;28;20037;-74
2022/11/11 03:54:32;;;;;;;23.53;13.53;;;10.70;99.90;;;;;;5053428;28;20032;-74
2022/11/11 03:59:42;;;;;;;21.77;12.70;;;10.70;99.90;;;;;;5054484;28;20051;-74
2022/11/11 04:10:24;;;;;;;22.08;13.18;;;10.70;99.90;;;;;;5054919;28;20535;-74
2022/11/11 04:21:41;;;;;;;20.75;12.98;;;10.70;99.90;;;;;;5054522;28;20040;-74
2022/11/11 04:23:48;;;;;;;23.15;12.57;;;10.70;99.90;;;;;;5055261;28;20106;-74
2022/11/11 04:26:13;;;;;;;19.67;12.70;;;10.70;99.90;;;;;;5026575;28;20049;-74
2022/11/11 04:31:23;;;;;;;21.98;11.10;;;10.70;99.90;;;;;;5052453;28;20072;-74
2022/11/11 04:33:49;;;;;;;20.70;11.68;;;10.70;99.90;;;;;;5053531;28;20029;-74
2022/11/11 04:36:14;;;;;;;23.57;11.87;;;10.70;99.90;;;;;;5053320;28;20096;-73
2022/11/11 04:41:24;;;;;;;;;;;10.60;99.90;;;;;;5039090;28;20508;-74
2022/11/11 04:46:34;;;;;;;17.73;11.20;;;10.70;99.90;;;;;;5053812;28;20067;-74
2022/11/11 04:49:00;;;;;;;20.13;11.50;;;10.70;99.90;;;;;;5036327;28;20071;-74
2022/11/11 04:52:25;;;;;;;19.37;11.53;;;10.70;99.90;;;;;;5035506;28;20725;-74
2022/11/11 04:54:11;;;;;;;21.80;13.80;;;10.70;99.90;;;;;;5052113;28;20033;-74
2022/11/11 04:56:49;;;;;;;20.77;12.13;;;10.70;99.90;;;;;;5035332;28;20503;-74
2022/11/11 04:59:15;;;;;;;18.47;10.97;;;10.70;99.90;;;;;;5051038;28;20025;-74
2022/11/11 05:04:26;;;;;;;20.43;12.27;;;10.70;99.90;;;;;;5038396;28;20044;-74
2022/11/11 05:09:36;;;;;;;;;;;10.70;99.90;;;;;;5039180;28;20550;-74
2022/11/11 05:12:02;;;;;;;19.93;12.53;;;10.70;99.90;;;;;;5045054;28;19944;-78
2022/11/11 05:22:42;;;;;;;20.17;11.73;;;10.60;99.90;;;;;;5034202;28;20132;-77
2022/11/11 05:25:24;;;;;;;19.67;11.30;;;10.60;99.90;;;;;;5032857;28;20017;-77
2022/11/11 05:27:53;;;;;;;20.13;11.60;;;10.60;99.90;;;;;;5033236;28;20343;-77
2022/11/11 05:30:19;;;;;;;21.57;11.93;;;10.70;99.90;;;;;;5033387;28;20037;-77
2022/11/11 05:32:45;;;;;;;20.23;11.20;;;10.60;99.90;;;;;;5033444;28;20057;-78
2022/11/11 05:35:12;;;;;;;18.87;11.03;;;10.60;99.90;;;;;;5033189;28;20021;-78
2022/11/11 05:37:37;;;;;;;22.17;13.00;;;10.60;99.90;;;;;;5033304;28;20202;-78
2022/11/11 05:40:05;;;;;;;17.00;11.23;;;10.60;99.90;;;;;;5033008;28;20063;-79
2022/11/11 05:42:30;;;;;;;17.30;11.03;;;10.60;99.90;;;;;;5032945;28;20067;-78
2022/11/11 05:44:56;;;;;;;22.70;11.33;;;10.60;99.90;;;;;;5033018;28;20042;-78
2022/11/11 05:47:22;;;;;;;24.10;11.83;;;10.60;99.90;;;;;;5015439;28;20057;-78
2022/11/11 05:49:47;;;;;;;22.93;12.00;;;10.60;99.90;;;;;;5032763;28;20021;-78
2022/11/11 05:52:15;;;;;;;21.20;11.13;;;10.50;99.90;;;;;;5037108;28;20029;-78
2022/11/11 05:54:41;;;;;;;21.90;10.53;;;10.50;99.90;;;;;;5035745;28;20383;-78
2022/11/11 05:57:07;;;;;;;19.27;10.70;;;10.50;99.90;;;;;;5019114;28;20055;-77
2022/11/11 05:59:33;;;;;;;22.37;11.70;;;10.50;99.90;;;;;;5002645;28;20026;-77
2022/11/11 06:01:58;;;;;;;17.50;11.10;;;10.50;99.90;;;;;;5036777;28;20064;-78
2022/11/11 06:04:24;;;;;;;20.77;12.07;;;10.50;99.90;;;;;;5018906;28;20424;-78
2022/11/11 06:06:50;;;;;;;18.73;10.70;;;10.50;99.90;;;;;;5036433;28;20032;-78
2022/11/11 06:09:16;;;;;;;23.47;11.43;;;10.50;99.90;;;;;;5018886;28;20432;-73
2022/11/11 06:11:42;;;;;;;18.10;11.40;;;10.50;99.90;;;;;;5036470;28;20034;-73
2022/11/11 06:14:07;;;;;;;24.77;11.27;;;10.50;99.90;;;;;;5036540;28;20426;-74
2022/11/11 06:16:33;;;;;;;19.17;12.00;;;10.50;99.90;;;;;;5047158;28;20078;-83
2022/11/11 06:18:59;;;;;;;18.10;11.60;;;10.50;99.90;;;;;;5058368;28;20025;-78
2022/11/11 06:21:26;;;;;;;22.03;11.20;;;10.50;99.90;;;;;;5057998;28;20016;-78
2022/11/11 06:23:51;;;;;;;23.17;11.87;;;10.40;99.90;;;;;;5046959;28;20362;-82
2022/11/11 06:26:18;;;;;;;23.10;12.43;;;10.40;99.90;;;;;;5064757;28;20028;-84
2022/11/11 06:28:51;;;;;;;22.73;12.60;;;10.40;99.90;;;;;;5048014;28;20016;-83
2022/11/11 06:31:20;;;;;;;21.52;12.20;;;10.40;99.90;;;;;;5065971;28;20496;-84
2022/11/11 06:33:46;;;;;;;17.53;11.50;;;10.30;99.90;;;;;;5048187;28;20013;-78
2022/11/11 06:36:15;;;;;;;25.57;13.70;;;10.30;99.90;;;;;;5044852;28;20028;-79
2022/11/11 06:38:41;;;;;;;19.37;12.03;;;10.30;99.90;;;;;;5045293;28;20017;-78
2022/11/11 06:41:11;;;;;;;21.83;13.40;;;10.30;99.90;;;;;;5064398;28;20021;-83
2022/11/11 06:43:37;;;;;;;19.10;12.33;;;10.30;99.90;;;;;;5030637;28;20024;-83
2022/11/11 06:46:03;;;;;;;22.93;12.37;;;10.30;99.90;;;;;;5056489;28;20039;-83
2022/11/11 06:48:29;;;;;;;22.40;12.90;;;10.30;99.90;;;;;;5040796;28;20021;-78
2022/11/11 06:51:01;;;;;;;22.03;12.97;;;10.20;99.90;;;;;;5040574;28;20020;-83
2022/11/11 06:53:28;;;;;;;21.43;12.87;;;10.20;99.90;;;;;;5057226;28;20025;-79
2022/11/11 06:55:53;;;;;;;22.60;12.27;;;10.20;99.90;;;;;;5040561;28;20021;-78
2022/11/11 06:58:20;;;;;;;21.33;13.27;;;10.20;99.90;;;;;;5075198;28;20075;-82
2022/11/11 07:00:47;;;;;;;20.70;13.10;;;10.20;99.90;;;;;;5040078;28;20032;-78
2022/11/11 07:03:14;;;;;;;21.23;12.20;;;10.20;99.90;;;;;;5067405;28;20040;-79
2022/11/11 07:05:41;;;;;;;20.67;13.60;;;10.20;99.90;;;;;;5054734;28;20021;-79
2022/11/11 07:08:09;;;;;;;24.90;14.00;;;10.20;99.90;;;;;;5036931;28;20025;-79
2022/11/11 07:10:37;;;;;;;20.00;12.10;;;10.10;99.90;;;;;;5037075;28;20016;-83
2022/11/11 07:13:04;;;;;;;22.80;14.00;;;10.20;99.90;;;;;;5040726;28;20025;-82
2022/11/11 07:15:30;;;;;;;22.13;13.93;;;10.10;99.90;;;;;;5040711;28;20400;-83
2022/11/11 07:17:56;;;;;;;22.27;13.77;;;10.10;99.90;;;;;;5057120;28;20029;-79
2022/11/11 07:20:22;;;;;;;21.10;13.40;;;10.20;99.90;;;;;;5040375;28;20480;-84
2022/11/11 07:22:47;;;;;;;24.10;13.93;;;10.10;99.90;;;;;;5040346;28;20024;-83
2022/11/11 07:25:13;;;;;;;23.47;14.27;;;10.10;99.90;;;;;;5040423;28;20567;-80
2022/11/11 07:27:40;;;;;;;22.80;14.43;;;10.10;99.90;;;;;;5023625;28;20029;-84
2022/11/11 07:30:07;;;;;;;21.90;15.23;;;10.10;99.90;;;;;;5055933;28;20029;-83
2022/11/11 07:32:33;;;;;;;24.13;15.80;;;10.10;99.90;;;;;;5037988;28;20029;-84
2022/11/11 07:34:58;;;;;;;26.40;17.60;;;10.10;99.90;;;;;;5053836;28;20492;-83
2022/11/11 07:37:24;;;;;;;29.97;17.00;;;10.10;99.90;;;;;;5029493;28;20021;-83
2022/11/11 07:39:50;;;;;;;25.77;16.93;;;10.10;99.90;;;;;;5060510;28;20051;-78
2022/11/11 07:42:15;;;;;;;27.83;18.33;;;10.10;99.90;;;;;;5055035;28;20044;-83
2022/11/11 07:44:42;;;;;;;31.80;17.70;;;10.00;99.90;;;;;;5037406;28;20094;-83
2022/11/11 07:47:08;;;;;;;29.33;17.70;;;10.00;99.90;;;;;;5036607;28;20120;-82
2022/11/11 07:49:33;;;;;;;29.20;17.73;;;10.00;99.90;;;;;;5032315;28;20108;-82
2022/11/11 07:51:59;;;;;;;27.50;16.83;;;10.00;99.90;;;;;;5015995;28;20029;-81
2022/11/11 07:54:25;;;;;;;28.50;17.80;;;10.00;99.90;;;;;;5032877;28;20033;-80
2022/11/11 07:56:51;;;;;;;25.27;16.03;;;9.90;99.90;;;;;;5032661;28;20030;-82
2022/11/11 07:59:16;;;;;;;28.03;17.60;;;9.90;99.90;;;;;;5016359;28;20128;-82
2022/11/11 08:01:42;;;;;;;29.07;18.63;;;9.90;99.90;;;;;;5032805;28;20114;-84
2022/11/11 08:04:08;;;;;;;29.67;18.80;;;9.80;99.90;;;;;;5016381;28;20033;-83
2022/11/11 08:06:33;;;;;;;28.40;17.07;;;9.80;99.90;;;;;;5016359;28;20062;-83
2022/11/11 08:08:59;;;;;;;26.47;16.30;;;9.80;99.90;;;;;;5033919;28;20025;-83
2022/11/11 08:14:09;;;;;;;28.73;16.83;;;9.70;99.90;;;;;;5033129;28;20045;-83
2022/11/11 08:16:34;;;;;;;31.27;18.47;;;9.70;99.90;;;;;;5016051;28;20022;-78
2022/11/11 08:19:00;;;;;;;31.13;18.67;;;9.80;99.90;;;;;;5032596;28;20033;-83
2022/11/11 08:21:26;;;;;;;25.57;18.03;;;9.70;99.90;;;;;;5032663;28;20032;-78
2022/11/11 08:23:53;;;;;;;29.67;18.50;;;9.70;99.90;;;;;;5015951;28;20026;-78
2022/11/11 08:26:20;;;;;;;27.03;17.37;;;9.70;99.90;;;;;;5032321;28;20025;-77
2022/11/11 08:28:46;;;;;;;28.93;16.90;;;9.80;99.90;;;;;;5032120;28;20021;-79
2022/11/11 08:31:12;;;;;;;26.13;15.60;;;9.70;99.90;;;;;;5032215;28;20045;-79
2022/11/11 08:33:37;;;;;;;26.50;15.37;;;9.80;99.90;;;;;;5032182;28;20056;-78
2022/11/11 08:36:04;;;;;;;28.73;15.93;;;9.80;99.90;;;;;;5032495;28;20478;-78
2022/11/11 08:38:30;;;;;;;22.40;12.83;;;9.80;99.90;;;;;;5033403;28;20029;-78
2022/11/11 08:40:59;;;;;;;21.20;13.47;;;9.80;99.90;;;;;;5032279;28;20028;-78
2022/11/11 08:43:25;;;;;;;20.63;12.97;;;9.90;99.90;;;;;;5033469;28;20097;-78
2022/11/11 08:45:54;;;;;;;26.63;13.30;;;9.90;99.90;;;;;;5015847;28;20128;-78
2022/11/11 08:48:19;;;;;;;19.63;12.97;;;9.80;99.90;;;;;;5033139;28;20030;-79
2022/11/11 08:50:45;;;;;;;22.27;12.90;;;9.80;99.90;;;;;;5015468;28;20022;-82
2022/11/11 08:53:11;;;;;;;22.70;11.63;;;9.80;99.90;;;;;;5032463;28;20408;-82
2022/11/11 08:55:37;;;;;;;20.83;12.37;;;9.80;99.90;;;;;;5032192;28;20030;-82
2022/11/11 08:58:06;;;;;;;21.27;12.97;;;9.80;99.90;;;;;;5015671;28;20113;-82
2022/11/11 09:00:32;;;;;;;18.60;11.70;;;9.80;99.90;;;;;;5031886;28;20030;-82
2022/11/11 09:03:06;;;;;;;21.47;12.07;;;9.80;99.90;;;;;;5031941;28;20033;-83
2022/11/11 09:05:32;;;;;;;;;;;9.80;99.90;;;;;;5032301;28;20036;-82
2022/11/11 09:08:05;;;;;;;21.43;13.80;;;9.90;99.90;;;;;;5031880;28;19910;-78
2022/11/11 09:10:31;;;;;;;18.43;11.23;;;9.90;99.90;;;;;;5031766;28;20478;-79
2022/11/11 09:12:57;;;;;;;18.43;11.43;;;9.90;99.90;;;;;;5031505;28;20124;-78
2022/11/11 09:15:24;;;;;;;18.00;11.03;;;9.90;99.90;;;;;;5015349;28;20030;-79
2022/11/11 09:17:49;;;;;;;20.47;11.43;;;9.90;99.90;;;;;;5015565;28;20037;-78
2022/11/11 09:20:15;;;;;;;16.83;11.43;;;10.00;99.90;;;;;;5031701;28;20025;-83
2022/11/11 09:22:42;;;;;;;16.10;9.77;;;10.00;99.90;;;;;;5031726;28;20033;-81
2022/11/11 09:25:09;;;;;;;16.13;9.67;;;10.20;99.90;;;;;;5033160;28;20028;-83
2022/11/11 09:27:34;;;;;;;14.53;9.50;;;10.20;99.90;;;;;;5035750;28;20033;-82
2022/11/11 09:30:00;;;;;;;14.27;9.23;;;10.30;99.90;;;;;;5035476;28;20394;-83
2022/11/11 09:32:26;;;;;;;15.65;9.25;;;10.50;99.90;;;;;;5019120;28;20030;-81
2022/11/11 09:34:54;;;;;;;13.20;7.47;;;10.70;99.80;;;;;;5035614;28;20026;-83
2022/11/11 09:37:20;;;;;;;16.00;7.80;;;10.90;99.90;;;;;;5035183;28;20074;-79
2022/11/11 09:39:45;;;;;;;13.32;7.32;;;11.20;99.90;;;;;;5018996;28;20033;-79
2022/11/11 09:42:51;;;;;;;15.93;7.10;;;11.40;99.80;;;;;;5035582;28;20026;-78
2022/11/11 09:45:49;;;;;;;12.55;7.43;;;11.70;99.90;;;;;;5031897;28;20529;-79
2022/11/11 09:48:29;;;;;;;11.55;7.60;;;12.00;99.00;;;;;;5036383;28;20049;-78
2022/11/11 09:50:58;;;;;;;13.88;6.85;;;12.30;98.90;;;;;;5035347;28;20021;-78
2022/11/11 09:53:27;;;;;;;9.60;5.60;;;12.60;98.50;;;;;;5035087;28;20026;-78
2022/11/11 09:56:05;;;;;;;11.30;6.50;;;12.80;98.20;;;;;;5035043;28;20053;-79
2022/11/11 09:58:43;;;;;;;10.27;5.68;;;13.10;97.80;;;;;;5036279;28;20021;-78
2022/11/11 10:01:17;;;;;;;11.70;6.45;;;13.20;96.30;;;;;;5036235;28;20021;-78
2022/11/11 10:03:48;;;;;;;11.25;5.72;;;13.40;95.60;;;;;;5036337;28;20107;-79
2022/11/11 10:06:30;;;;;;;9.48;6.35;;;13.60;95.20;;;;;;5035042;28;20104;-79
2022/11/11 10:09:05;;;;;;;10.15;5.60;;;13.70;93.90;;;;;;5036014;28;20013;-76
2022/11/11 10:12:00;;;;;;;8.57;5.25;;;14.00;94.00;;;;;;5035913;28;20472;-77
2022/11/11 10:14:35;;;;;;;9.57;5.50;;;14.10;92.80;;;;;;5034956;28;20029;-78
2022/11/11 10:17:22;;;;;;;13.18;5.85;;;14.30;92.20;;;;;;5034677;28;20504;-79
2022/11/11 10:19:59;;;;;;;11.10;5.13;;;14.40;91.90;;;;;;5034664;28;20035;-84
2022/11/11 10:22:35;;;;;;;8.30;5.03;;;14.50;91.60;;;;;;5036006;28;20029;-83
2022/11/11 10:25:23;;;;;;;9.73;5.07;;;14.70;90.60;;;;;;5034944;28;20025;-83
2022/11/11 10:27:53;;;;;;;11.07;6.00;;;14.90;90.70;;;;;;5034860;28;20151;-79
2022/11/11 10:30:20;;;;;;;10.02;5.30;;;15.00;88.60;;;;;;5041631;28;20052;-78
2022/11/11 10:33:23;;;;;;;10.93;5.38;;;15.00;87.80;;;;;;5055764;28;20100;-79
2022/11/11 10:35:50;;;;;;;11.10;5.10;;;15.00;88.20;;;;;;5036796;28;20036;-79
2022/11/11 10:38:22;;;;;;;8.05;4.00;;;15.20;86.50;;;;;;5037543;28;20045;-84
2022/11/11 10:40:52;;;;;;;7.90;4.45;;;15.30;86.90;;;;;;5037996;28;20021;-84
2022/11/11 10:43:28;;;;;;;10.90;3.92;;;15.50;85.40;;;;;;5055580;28;20028;-79
2022/11/11 10:46:21;;;;;;;7.78;4.07;;;15.70;85.20;;;;;;5055226;28;20036;-78
2022/11/11 10:48:59;;;;;;;6.55;3.05;;;15.90;84.40;;;;;;5037233;28;20104;-78
2022/11/11 10:51:29;;;;;;;6.82;4.10;;;16.10;83.20;;;;;;5055041;28;20500;-79
2022/11/11 10:54:02;;;;;;;5.20;2.92;;;16.30;83.30;;;;;;5037358;28;20463;-79
2022/11/11 10:56:35;;;;;;;5.85;2.63;;;16.70;83.40;;;;;;5055655;28;20481;-83
2022/11/11 10:59:28;;;;;;;6.38;2.90;;;17.00;83.10;;;;;;5038839;28;20021;-84
2022/11/11 11:02:08;;;;;;;5.05;2.83;;;17.40;82.70;;;;;;5038392;28;20029;-83
2022/11/11 11:04:44;;;;;;;6.47;2.75;;;17.80;82.20;;;;;;5038975;28;20507;-83
2022/11/11 11:07:14;;;;;;;8.02;2.90;;;18.20;79.80;;;;;;5038064;28;20397;-85
2022/11/11 11:10:00;;;;;;;9.68;3.42;;;18.60;77.10;;;;;;5038450;28;20120;-84
2022/11/11 11:12:38;;;;;;;7.93;2.95;;;18.70;75.90;;;;;;5038873;28;20031;-83
2022/11/11 11:15:10;;;;;;;7.00;3.08;;;19.10;74.60;;;;;;5038152;28;20040;-84
2022/11/11 11:17:44;;;;;;;4.53;2.75;;;19.20;73.40;;;;;;5037062;28;20048;-85
2022/11/11 11:20:18;;;;;;;6.82;3.05;;;19.30;73.20;;;;;;5054703;28;20024;-85
2022/11/11 11:22:50;;;;;;;4.95;2.53;;;19.50;71.10;;;;;;5036801;28;20462;-84
2022/11/11 11:25:17;;;;;;;6.20;2.47;;;19.70;71.30;;;;;;5036802;28;20108;-83
2022/11/11 11:27:44;;;;;;;5.15;2.88;;;19.90;69.50;;;;;;5036879;28;20021;-85
2022/11/11 11:30:18;;;;;;;7.03;2.85;;;20.00;69.00;;;;;;5054415;28;20041;-77
2022/11/11 11:32:59;;;;;;;5.32;2.58;;;20.00;66.90;;;;;;5036431;28;20033;-84
2022/11/11 11:35:31;;;;;;;6.78;2.88;;;20.00;66.70;;;;;;5053279;28;20362;-78
2022/11/11 11:37:57;;;;;;;4.85;2.45;;;20.20;67.90;;;;;;5036248;28;20120;-79
2022/11/11 11:40:23;;;;;;;5.30;2.45;;;20.40;66.50;;;;;;5036473;28;20057;-79
2022/11/11 11:42:48;;;;;;;4.57;2.42;;;20.40;65.60;;;;;;5053238;28;20033;-84
2022/11/11 11:45:15;;;;;;;6.85;2.40;;;20.40;64.60;;;;;;5036402;28;20033;-78
2022/11/11 11:47:47;;;;;;;5.07;2.22;;;20.40;64.50;;;;;;5036003;28;20106;-84
2022/11/11 11:50:34;;;;;;;4.50;2.50;;;20.40;64.40;;;;;;5054363;28;20021;-78
2022/11/11 11:53:09;;;;;;;6.60;2.53;;;20.40;63.50;;;;;;5054243;28;20100;-84
2022/11/11 11:55:41;;;;;;;6.43;3.30;;;20.50;63.40;;;;;;5037596;28;20025;-83
2022/11/11 11:58:20;;;;;;;6.60;2.88;;;20.50;63.10;;;;;;5038621;28;20519;-84
2022/11/11 12:01:18;;;;;;;4.43;2.17;;;20.50;62.60;;;;;;5037822;28;20021;-82
2022/11/11 12:04:38;;;;;;;5.82;3.10;;;20.40;61.50;;;;;;5037267;28;20111;-83
2022/11/11 12:07:28;;;;;;;6.22;3.00;;;20.20;61.30;;;;;;4977245;28;20541;-78
2022/11/11 12:10:06;;;;;;;8.18;2.67;;;20.00;61.20;;;;;;5034505;28;20378;-78
2022/11/11 12:12:52;;;;;;;4.53;2.42;;;20.00;61.70;;;;;;5053729;28;20033;-79
2022/11/11 12:15:22;;;;;;;5.43;2.22;;;19.90;61.30;;;;;;5026531;28;20036;-82
2022/11/11 12:17:56;;;;;;;5.38;2.95;;;19.90;61.80;;;;;;5035959;28;20051;-78
2022/11/11 12:20:37;;;;;;;4.15;2.25;;;19.80;61.20;;;;;;5035634;28;20491;-78
2022/11/11 12:23:39;;;;;;;4.05;2.50;;;19.70;61.60;;;;;;5054456;28;20017;-83
2022/11/11 12:26:33;;;;;;;5.35;2.50;;;19.60;62.00;;;;;;5023147;28;20087;-78
2022/11/11 12:29:09;;;;;;;5.72;2.70;;;19.70;62.10;;;;;;5036452;28;20055;-77
2022/11/11 12:31:35;;;;;;;4.60;2.38;;;19.70;61.70;;;;;;5053414;28;20037;-84
2022/11/11 12:34:36;;;;;;;7.57;2.72;;;19.50;61.80;;;;;;5037264;28;20043;-84
2022/11/11 12:37:26;;;;;;;4.60;2.70;;;19.40;61.90;;;;;;5036948;28;20029;-84
2022/11/11 12:40:30;;;;;;;5.82;2.10;;;19.20;62.10;;;;;;5054776;28;20100;-84
2022/11/11 12:43:33;;;;;;;4.30;2.00;;;19.10;62.40;;;;;;5056007;28;20029;-84
2022/11/11 12:46:30;;;;;;;9.98;2.78;;;19.10;62.70;;;;;;5036245;28;20148;-78
2022/11/11 12:49:33;;;;;;;7.15;2.50;;;19.00;62.20;;;;;;5035190;28;20025;-78
2022/11/11 12:52:07;;;;;;;5.93;2.10;;;18.90;62.70;;;;;;5054680;28;20112;-82
2022/11/11 12:54:52;;;;;;;6.07;2.33;;;19.00;62.90;;;;;;5056879;28;20477;-84
2022/11/11 12:57:33;;;;;;;14.98;2.60;;;19.10;62.80;;;;;;5056796;28;20108;-84
2022/11/11 13:00:18;;;;;;;5.05;1.80;;;19.10;62.90;;;;;;5037819;28;20075;-84
2022/11/11 13:02:55;;;;;;;3.97;1.63;;;19.20;62.90;;;;;;5053091;28;20405;-78
2022/11/11 13:05:40;;;;;;;3.97;1.98;;;19.30;62.90;;;;;;5052715;28;20031;-78
2022/11/11 13:08:34;;;;;;;7.22;2.05;;;19.30;62.70;;;;;;5035026;28;20028;-85
2022/11/11 13:11:18;;;;;;;4.35;1.70;;;19.20;62.70;;;;;;5013677;28;20037;-85
2022/11/11 13:13:52;;;;;;;3.10;1.80;;;19.30;62.90;;;;;;5016838;28;20443;-84
2022/11/11 13:16:21;;;;;;;6.75;2.15;;;19.40;62.80;;;;;;5014335;28;20036;-79
2022/11/11 13:18:54;;;;;;;3.38;1.52;;;19.40;62.80;;;;;;5013688;28;20051;-79
2022/11/11 13:21:30;;;;;;;5.50;1.98;;;19.50;62.80;;;;;;5032758;28;20087;-79
2022/11/11 13:23:56;;;;;;;5.65;1.85;;;19.50;62.80;;;;;;5032990;28;20033;-79
2022/11/11 13:26:46;;;;;;;4.68;2.03;;;19.50;62.30;;;;;;5014493;28;20371;-79
2022/11/11 13:29:42;;;;;;;5.78;1.98;;;19.30;62.30;;;;;;5031608;28;20025;-79
2022/11/11 13:32:12;;;;;;;5.18;1.58;;;19.30;62.80;;;;;;5014931;28;20050;-79
2022/11/11 13:34:39;;;;;;;3.33;1.63;;;19.10;62.50;;;;;;5031765;28;20061;-79
2022/11/11 13:37:08;;;;;;;4.50;1.88;;;19.00;62.70;;;;;;5014867;28;20029;-78
2022/11/11 13:39:39;;;;;;;4.88;1.65;;;18.90;62.90;;;;;;5031156;28;20120;-85
2022/11/11 13:42:06;;;;;;;5.50;1.55;;;18.90;63.10;;;;;;5031657;28;20030;-86
2022/11/11 13:44:51;;;;;;;2.85;1.40;;;18.90;63.30;;;;;;5015725;28;20048;-85
2022/11/11 13:47:23;;;;;;;6.40;2.08;;;19.00;63.20;;;;;;5031616;28;20083;-85
2022/11/11 13:50:00;;;;;;;3.50;1.50;;;19.10;63.10;;;;;;5032822;28;20096;-85
2022/11/11 13:52:51;;;;;;;8.38;1.27;;;19.30;62.90;;;;;;5031650;28;20087;-85
2022/11/11 13:55:27;;;;;;;4.65;1.48;;;19.40;62.30;;;;;;5012823;28;20482;-86
2022/11/11 13:57:53;;;;;;;5.40;1.30;;;19.60;62.20;;;;;;5045187;28;20037;-78
2022/11/11 14:00:20;;;;;;;3.80;1.23;;;19.90;62.10;;;;;;5028658;28;20036;-79
2022/11/11 14:02:46;;;;;;;3.17;1.10;;;20.20;61.80;;;;;;5047306;28;20029;-78
2022/11/11 14:05:12;;;;;;;6.65;1.42;;;20.40;61.40;;;;;;5013986;28;20036;-78
2022/11/11 14:07:43;;;;;;;5.50;1.42;;;20.60;60.40;;;;;;5036843;28;20393;-78
2022/11/11 14:10:18;;;;;;;3.08;1.10;;;20.60;59.70;;;;;;5035104;28;20104;-78